createdAt,value
2022-08-28T00:00:10.455Z,6.50
2022-08-28T00:02:37.696Z,7.43
2022-08-28T00:05:06.138Z,6.88
2022-08-28T00:07:32.744Z,6.72
2022-08-28T00:09:59.285Z,7.15
2022-08-28T00:12:26.678Z,6.53
2022-08-28T00:14:53.381Z,7.78
2022-08-28T00:17:19.906Z,5.85
2022-08-28T00:19:46.522Z,6.82
2022-08-28T00:22:13.089Z,6.53
2022-08-28T00:24:44.542Z,6.68
2022-08-28T00:27:29.754Z,7.13
2022-08-28T00:29:56.272Z,8.00
2022-08-28T00:32:25.232Z,6.82
2022-08-28T00:34:52.032Z,6.72
2022-08-28T00:37:18.764Z,7.40
2022-08-28T00:39:45.430Z,6.65
2022-08-28T00:42:12.353Z,7.15
2022-08-28T00:44:38.965Z,6.75
2022-08-28T00:47:05.628Z,6.55
2022-08-28T00:49:36.024Z,7.25
2022-08-28T00:52:08.663Z,6.38
2022-08-28T00:54:58.430Z,6.13
2022-08-28T00:57:36.231Z,7.00
2022-08-28T01:00:11.709Z,7.13
2022-08-28T01:02:38.324Z,5.70
2022-08-28T01:05:09.549Z,6.55
2022-08-28T01:07:37.295Z,6.75
2022-08-28T01:10:07.960Z,6.97
2022-08-28T01:12:35.781Z,6.70
2022-08-28T01:15:11.866Z,6.32
2022-08-28T01:17:44.357Z,6.43
2022-08-28T01:20:15.123Z,6.60
2022-08-28T01:22:54.052Z,6.03
2022-08-28T01:25:23.476Z,6.35
2022-08-28T01:27:51.202Z,7.00
2022-08-28T01:30:21.572Z,6.93
2022-08-28T01:32:51.854Z,6.28
2022-08-28T01:35:21.625Z,6.45
2022-08-28T01:37:49.218Z,6.13
2022-08-28T01:40:23.035Z,6.85
2022-08-28T01:42:50.332Z,7.40
2022-08-28T01:45:20.527Z,7.03
2022-08-28T01:47:47.802Z,7.10
2022-08-28T01:50:20.735Z,7.38
2022-08-28T01:52:47.274Z,6.25
2022-08-28T01:55:14.147Z,7.20
2022-08-28T01:57:49.726Z,7.57
2022-08-28T02:00:17.660Z,6.65
2022-08-28T02:02:44.285Z,6.68
2022-08-28T02:05:11.568Z,6.65
2022-08-28T02:07:38.304Z,6.78
2022-08-28T02:10:07.387Z,6.72
2022-08-28T02:15:00.633Z,6.50
2022-08-28T02:17:27.193Z,6.72
2022-08-28T02:19:53.799Z,6.82
2022-08-28T02:22:20.341Z,6.93
2022-08-28T02:24:46.929Z,6.60
2022-08-28T02:27:13.609Z,6.88
2022-08-28T02:29:40.126Z,6.38
2022-08-28T02:32:06.976Z,7.47
2022-08-28T02:34:34.771Z,6.65
2022-08-28T02:37:01.568Z,7.15
2022-08-28T02:39:28.236Z,6.90
2022-08-28T02:41:54.788Z,7.30
2022-08-28T02:44:21.378Z,6.70
2022-08-28T02:46:47.965Z,7.25
2022-08-28T02:49:14.506Z,7.05
2022-08-28T02:51:41.032Z,6.97
2022-08-28T02:54:07.547Z,6.78
2022-08-28T02:56:34.418Z,7.15
2022-08-28T02:59:01.095Z,6.35
2022-08-28T03:01:27.694Z,7.32
2022-08-28T03:03:54.359Z,6.32
2022-08-28T03:06:21.022Z,6.95
2022-08-28T03:08:47.578Z,6.78
2022-08-28T03:11:14.137Z,7.38
2022-08-28T03:13:41.969Z,7.03
2022-08-28T03:16:08.717Z,6.28
2022-08-28T03:18:35.352Z,7.63
2022-08-28T03:21:02.434Z,7.30
2022-08-28T03:23:30.311Z,7.43
2022-08-28T03:26:03.588Z,6.53
2022-08-28T03:28:33.877Z,7.03
2022-08-28T03:31:01.265Z,6.85
2022-08-28T03:33:28.368Z,7.15
2022-08-28T03:35:55.651Z,7.13
2022-08-28T03:38:22.624Z,7.60
2022-08-28T03:40:52.373Z,7.18
2022-08-28T03:43:22.787Z,6.88
2022-08-28T03:45:58.172Z,6.43
2022-08-28T03:48:30.359Z,7.20
2022-08-28T03:50:57.939Z,7.97
2022-08-28T03:53:27.702Z,7.03
2022-08-28T03:55:55.789Z,7.05
2022-08-28T03:58:23.200Z,6.68
2022-08-28T04:00:51.126Z,7.38
2022-08-28T04:03:18.721Z,7.15
2022-08-28T04:05:46.649Z,6.40
2022-08-28T04:08:16.073Z,6.50
2022-08-28T04:10:46.452Z,7.55
2022-08-28T04:13:14.474Z,7.43
2022-08-28T04:15:41.698Z,7.35
2022-08-28T04:18:09.711Z,7.60
2022-08-28T04:20:36.702Z,7.03
2022-08-28T04:23:04.136Z,7.35
2022-08-28T04:25:31.848Z,6.97
2022-08-28T04:27:58.894Z,6.82
2022-08-28T04:30:25.478Z,7.72
2022-08-28T04:32:51.994Z,6.93
2022-08-28T04:35:18.548Z,7.75
2022-08-28T04:37:45.056Z,7.60
2022-08-28T04:40:13.242Z,8.40
2022-08-28T04:42:40.398Z,7.23
2022-08-28T04:45:07.791Z,8.25
2022-08-28T04:47:38.900Z,8.13
2022-08-28T04:50:07.443Z,8.05
2022-08-28T04:52:34.561Z,7.85
2022-08-28T04:55:01.654Z,7.68
2022-08-28T04:57:28.243Z,7.28
2022-08-28T04:59:54.950Z,8.63
2022-08-28T05:02:21.500Z,8.70
2022-08-28T05:04:49.176Z,10.65
2022-08-28T05:07:15.870Z,10.60
2022-08-28T05:09:42.492Z,9.77
2022-08-28T05:12:09.088Z,9.30
2022-08-28T05:14:36.661Z,8.27
2022-08-28T05:17:03.224Z,7.72
2022-08-28T05:19:29.746Z,9.77
2022-08-28T05:21:56.552Z,8.60
2022-08-28T05:24:23.294Z,8.85
2022-08-28T05:26:50.244Z,8.70
2022-08-28T05:29:17.063Z,8.52
2022-08-28T05:31:43.950Z,8.80
2022-08-28T05:34:10.852Z,8.18
2022-08-28T05:36:38.857Z,8.00
2022-08-28T05:39:08.902Z,7.72
2022-08-28T05:41:36.773Z,8.50
2022-08-28T05:44:07.270Z,8.10
2022-08-28T05:46:36.781Z,7.68
2022-08-28T05:49:07.721Z,8.60
2022-08-28T05:51:36.834Z,8.90
2022-08-28T05:54:04.118Z,8.35
2022-08-28T05:56:34.573Z,9.35
2022-08-28T05:59:03.553Z,8.05
2022-08-28T06:01:32.840Z,8.43
2022-08-28T06:04:03.539Z,7.93
2022-08-28T06:06:34.377Z,8.57
2022-08-28T06:09:04.763Z,7.88
2022-08-28T06:11:31.878Z,7.65
2022-08-28T06:14:01.891Z,7.40
2022-08-28T06:16:31.297Z,7.43
2022-08-28T06:18:58.494Z,7.47
2022-08-28T06:21:25.266Z,7.32
2022-08-28T06:23:51.980Z,7.32
2022-08-28T06:26:18.910Z,6.90
2022-08-28T06:28:45.573Z,7.93
2022-08-28T06:31:25.055Z,6.68
2022-08-28T06:33:54.441Z,7.55
2022-08-28T06:36:21.785Z,6.28
2022-08-28T06:38:48.310Z,5.57
2022-08-28T06:41:15.727Z,5.13
2022-08-28T06:43:42.876Z,6.03
2022-08-28T06:46:09.707Z,6.28
2022-08-28T06:48:39.348Z,5.20
2022-08-28T06:51:09.472Z,5.93
2022-08-28T06:53:37.336Z,6.15
2022-08-28T06:56:11.301Z,6.47
2022-08-28T06:58:43.048Z,7.30
2022-08-28T07:01:27.058Z,5.57
2022-08-28T07:03:55.789Z,5.15
2022-08-28T07:06:23.718Z,6.07
2022-08-28T07:08:51.372Z,5.28
2022-08-28T07:11:26.174Z,6.00
2022-08-28T07:13:53.989Z,5.75
2022-08-28T07:16:23.638Z,5.07
2022-08-28T07:18:51.763Z,5.20
2022-08-28T07:21:18.318Z,5.13
2022-08-28T07:23:46.391Z,4.70
2022-08-28T07:26:16.934Z,5.00
2022-08-28T07:28:45.417Z,6.72
2022-08-28T07:31:15.453Z,5.15
2022-08-28T07:33:43.645Z,4.93
2022-08-28T07:36:16.029Z,5.15
2022-08-28T07:38:56.419Z,4.53
2022-08-28T07:41:27.668Z,5.35
2022-08-28T07:44:13.036Z,5.10
2022-08-28T07:46:40.248Z,5.25
2022-08-28T07:49:07.692Z,5.15
2022-08-28T07:51:34.860Z,4.35
2022-08-28T07:54:03.216Z,4.93
2022-08-28T07:56:30.792Z,4.60
2022-08-28T07:58:58.715Z,4.13
2022-08-28T08:01:28.933Z,6.07
2022-08-28T08:04:01.733Z,4.55
2022-08-28T08:06:34.175Z,4.57
2022-08-28T08:09:02.018Z,4.50
2022-08-28T08:11:32.281Z,4.43
2022-08-28T08:14:05.622Z,4.53
2022-08-28T08:16:40.133Z,3.78
2022-08-28T08:19:10.040Z,3.85
2022-08-28T08:21:37.580Z,3.72
2022-08-28T08:24:04.599Z,3.50
2022-08-28T08:26:31.370Z,3.60
2022-08-28T08:28:59.042Z,3.30
2022-08-28T08:31:29.550Z,3.75
2022-08-28T08:33:58.144Z,2.88
2022-08-28T08:36:26.820Z,3.10
2022-08-28T08:38:59.297Z,2.72
2022-08-28T08:41:48.445Z,2.53
2022-08-28T08:44:28.018Z,2.50
2022-08-28T08:47:19.388Z,2.72
2022-08-28T08:49:57.240Z,2.85
2022-08-28T08:52:42.182Z,2.78
2022-08-28T08:55:34.246Z,2.70
2022-08-28T08:58:16.532Z,2.83
2022-08-28T09:01:20.817Z,3.05
2022-08-28T09:04:10.355Z,2.80
2022-08-28T09:06:50.470Z,3.38
2022-08-28T09:09:18.853Z,2.65
2022-08-28T09:11:57.038Z,2.47
2022-08-28T09:14:33.256Z,2.72
2022-08-28T09:17:00.958Z,3.20
2022-08-28T09:19:27.737Z,3.15
2022-08-28T09:21:54.652Z,3.38
2022-08-28T09:24:22.720Z,3.03
2022-08-28T09:26:56.436Z,3.35
2022-08-28T09:29:47.323Z,2.60
2022-08-28T09:32:33.570Z,2.95
2022-08-28T09:35:06.435Z,3.55
2022-08-28T09:37:35.331Z,2.88
2022-08-28T09:40:23.287Z,3.50
2022-08-28T09:43:28.868Z,3.10
2022-08-28T09:46:16.148Z,4.13
2022-08-28T09:48:45.453Z,3.97
2022-08-28T09:51:26.761Z,3.75
2022-08-28T09:53:56.480Z,3.38
2022-08-28T09:56:34.041Z,3.60
2022-08-28T09:59:06.521Z,3.78
2022-08-28T10:01:49.134Z,3.20
2022-08-28T10:04:15.937Z,3.55
2022-08-28T10:07:10.209Z,3.55
2022-08-28T10:10:06.669Z,3.80
2022-08-28T10:12:38.332Z,4.00
2022-08-28T10:15:04.945Z,2.90
2022-08-28T10:17:59.173Z,3.53
2022-08-28T10:20:45.902Z,3.45
2022-08-28T10:23:21.454Z,3.28
2022-08-28T10:25:58.695Z,2.97
2022-08-28T10:28:49.444Z,3.53
2022-08-28T10:31:57.825Z,3.03
2022-08-28T10:34:31.615Z,3.58
2022-08-28T10:37:40.006Z,3.22
2022-08-28T10:40:16.523Z,3.10
2022-08-28T10:42:48.550Z,3.65
2022-08-28T10:45:24.883Z,3.97
2022-08-28T10:47:57.727Z,3.20
2022-08-28T10:50:34.264Z,3.58
2022-08-28T10:53:07.230Z,3.83
2022-08-28T10:55:39.373Z,4.15
2022-08-28T10:58:24.381Z,3.70
2022-08-28T11:01:06.454Z,3.58
2022-08-28T11:03:40.833Z,3.60
2022-08-28T11:06:16.157Z,3.45
2022-08-28T11:08:52.937Z,3.17
2022-08-28T11:11:44.770Z,3.40
2022-08-28T11:14:25.391Z,4.25
2022-08-28T11:16:54.611Z,3.90
2022-08-28T11:19:43.993Z,3.72
2022-08-28T11:22:30.738Z,3.63
2022-08-28T11:25:12.832Z,3.10
2022-08-28T11:27:40.540Z,3.17
2022-08-28T11:30:10.942Z,3.30
2022-08-28T11:32:37.516Z,3.65
2022-08-28T11:35:10.688Z,3.50
2022-08-28T11:37:43.522Z,3.35
2022-08-28T11:40:17.385Z,3.25
2022-08-28T11:42:48.671Z,3.28
2022-08-28T11:46:01.095Z,3.38
2022-08-28T11:48:33.407Z,4.07
2022-08-28T11:51:18.215Z,3.83
2022-08-28T11:53:57.370Z,3.53
2022-08-28T11:56:48.506Z,3.92
2022-08-28T11:59:34.855Z,3.47
2022-08-28T12:02:33.271Z,3.70
2022-08-28T12:04:59.963Z,3.58
2022-08-28T12:07:35.013Z,3.22
2022-08-28T12:10:05.176Z,4.00
2022-08-28T12:12:47.220Z,4.32
2022-08-28T12:15:41.599Z,3.72
2022-08-28T12:18:11.191Z,3.78
2022-08-28T12:21:07.097Z,3.85
2022-08-28T12:23:37.175Z,5.78
2022-08-28T12:26:09.117Z,3.95
2022-08-28T12:28:49.204Z,4.20
2022-08-28T12:31:46.453Z,3.95
2022-08-28T12:34:50.223Z,3.88
2022-08-28T12:37:31.248Z,4.93
2022-08-28T12:40:20.603Z,3.80
2022-08-28T12:43:00.820Z,4.90
2022-08-28T12:45:42.632Z,4.13
2022-08-28T12:48:44.915Z,4.35
2022-08-28T12:51:22.305Z,3.97
2022-08-28T12:53:52.758Z,4.22
2022-08-28T12:56:21.892Z,4.40
2022-08-28T12:58:49.475Z,4.55
2022-08-28T13:01:30.887Z,3.92
2022-08-28T13:04:04.502Z,4.32
2022-08-28T13:06:36.425Z,4.85
2022-08-28T13:09:18.662Z,4.43
2022-08-28T13:11:49.259Z,4.43
2022-08-28T13:14:43.574Z,3.92
2022-08-28T13:17:12.719Z,4.13
2022-08-28T13:19:40.141Z,3.97
2022-08-28T13:22:28.480Z,4.03
2022-08-28T13:25:03.127Z,3.83
2022-08-28T13:27:30.048Z,3.63
2022-08-28T13:30:16.627Z,4.25
2022-08-28T13:32:55.946Z,4.28
2022-08-28T13:35:22.418Z,4.03
2022-08-28T13:37:54.815Z,3.92
2022-08-28T13:40:56.224Z,4.28
2022-08-28T13:43:18.197Z,4.32
2022-08-28T13:45:48.737Z,3.97
2022-08-28T13:48:19.307Z,4.35
2022-08-28T13:50:49.869Z,3.60
2022-08-28T13:53:19.606Z,4.40
2022-08-28T13:56:00.327Z,4.47
2022-08-28T13:58:28.233Z,4.22
2022-08-28T14:00:55.631Z,5.20
2022-08-28T14:03:38.128Z,4.47
2022-08-28T14:06:11.347Z,3.90
2022-08-28T14:08:39.850Z,4.50
2022-08-28T14:11:07.418Z,4.65
2022-08-28T14:13:34.525Z,4.30
2022-08-28T14:16:05.708Z,3.78
2022-08-28T14:18:32.331Z,4.32
2022-08-28T14:20:59.028Z,3.85
2022-08-28T14:23:25.583Z,4.38
2022-08-28T14:25:52.371Z,4.30
2022-08-28T14:28:19.086Z,5.10
2022-08-28T14:30:50.438Z,4.05
2022-08-28T14:33:20.852Z,4.60
2022-08-28T14:35:49.027Z,4.50
2022-08-28T14:38:16.776Z,4.43
2022-08-28T14:40:44.045Z,5.05
2022-08-28T14:43:13.546Z,4.43
2022-08-28T14:45:48.624Z,4.03
2022-08-28T14:48:18.260Z,4.88
2022-08-28T14:50:48.060Z,4.65
2022-08-28T14:53:15.875Z,4.20
2022-08-28T14:55:49.017Z,4.77
2022-08-28T14:58:17.379Z,4.70
2022-08-28T15:00:46.822Z,4.10
2022-08-28T15:03:14.573Z,3.83
2022-08-28T15:05:42.302Z,4.83
2022-08-28T15:08:10.956Z,4.72
2022-08-28T15:10:39.062Z,5.20
2022-08-28T15:13:07.710Z,3.97
2022-08-28T15:15:39.687Z,4.05
2022-08-28T15:18:07.543Z,4.95
2022-08-28T15:20:42.432Z,3.83
2022-08-28T15:23:09.064Z,4.43
2022-08-28T15:25:35.758Z,4.07
2022-08-28T15:28:02.558Z,4.28
2022-08-28T15:30:29.179Z,4.72
2022-08-28T15:32:55.821Z,4.55
2022-08-28T15:35:22.408Z,4.40
2022-08-28T15:37:49.061Z,4.25
2022-08-28T15:40:34.277Z,4.90
2022-08-28T15:43:00.928Z,4.32
2022-08-28T15:45:27.590Z,4.72
2022-08-28T15:47:54.487Z,4.80
2022-08-28T15:50:21.226Z,4.32
2022-08-28T15:52:48.069Z,4.22
2022-08-28T15:55:14.688Z,4.57
2022-08-28T15:57:41.332Z,4.22
2022-08-28T16:00:10.521Z,4.35
2022-08-28T16:02:37.607Z,4.78
2022-08-28T16:05:04.572Z,4.80
2022-08-28T16:07:31.093Z,4.40
2022-08-28T16:09:57.777Z,4.97
2022-08-28T16:12:25.519Z,5.25
2022-08-28T16:14:52.065Z,4.30
2022-08-28T16:17:19.032Z,4.78
2022-08-28T16:19:46.692Z,4.70
2022-08-28T16:22:16.015Z,4.38
2022-08-28T16:24:43.600Z,4.50
2022-08-28T16:27:14.647Z,4.93
2022-08-28T16:29:42.766Z,4.93
2022-08-28T16:32:09.622Z,4.10
2022-08-28T16:34:38.882Z,4.78
2022-08-28T16:37:06.162Z,4.68
2022-08-28T16:39:35.423Z,5.03
2022-08-28T16:42:02.359Z,4.25
2022-08-28T16:44:28.950Z,11.82
2022-08-28T16:46:55.983Z,25.77
2022-08-28T16:49:23.678Z,19.70
2022-08-28T16:51:50.565Z,11.05
2022-08-28T16:54:21.502Z,5.75
2022-08-28T16:56:48.086Z,4.40
2022-08-28T16:59:17.978Z,13.55
2022-08-28T17:01:44.809Z,4.78
2022-08-28T17:04:12.302Z,6.57
2022-08-28T17:06:40.054Z,6.88
2022-08-28T17:09:06.862Z,9.68
2022-08-28T17:11:33.425Z,6.20
2022-08-28T17:14:00.362Z,4.10
2022-08-28T17:16:31.462Z,3.90
2022-08-28T17:18:59.535Z,4.55
2022-08-28T17:21:44.508Z,4.82
2022-08-28T17:24:14.946Z,4.03
2022-08-28T17:26:42.594Z,4.63
2022-08-28T17:29:09.474Z,4.22
2022-08-28T17:31:36.790Z,4.45
2022-08-28T17:34:03.983Z,3.85
2022-08-28T17:36:33.070Z,3.97
2022-08-28T17:39:03.048Z,3.22
2022-08-28T17:41:29.738Z,3.80
2022-08-28T17:43:56.305Z,4.13
2022-08-28T17:46:22.897Z,4.45
2022-08-28T17:48:54.478Z,3.55
2022-08-28T17:51:42.685Z,4.05
2022-08-28T17:54:18.606Z,4.28
2022-08-28T17:56:46.391Z,3.85
2022-08-28T17:59:13.794Z,4.28
2022-08-28T18:01:42.064Z,5.00
2022-08-28T18:04:09.338Z,4.35
2022-08-28T18:06:36.088Z,6.72
2022-08-28T18:09:03.639Z,6.85
2022-08-28T18:11:30.418Z,4.35
2022-08-28T18:13:57.292Z,4.63
2022-08-28T18:16:27.646Z,3.92
2022-08-28T18:18:57.091Z,4.78
2022-08-28T18:21:23.679Z,4.15
2022-08-28T18:23:50.278Z,4.57
2022-08-28T18:26:17.624Z,4.28
2022-08-28T18:28:44.693Z,3.95
2022-08-28T18:31:11.257Z,23.83
2022-08-28T18:33:37.895Z,20.80
2022-08-28T18:36:07.883Z,9.23
2022-08-28T18:38:35.621Z,5.65
2022-08-28T18:41:04.533Z,5.55
2022-08-28T18:43:31.704Z,4.55
2022-08-28T18:45:59.605Z,4.75
2022-08-28T18:48:26.797Z,5.10
2022-08-28T18:50:53.458Z,5.13
2022-08-28T18:53:22.563Z,4.57
2022-08-28T18:55:52.190Z,4.35
2022-08-28T18:58:19.282Z,6.28
2022-08-28T19:00:45.908Z,5.47
2022-08-28T19:03:12.659Z,6.55
2022-08-28T19:05:40.144Z,4.50
2022-08-28T19:08:06.840Z,5.95
2022-08-28T19:10:35.296Z,5.97
2022-08-28T19:13:03.573Z,5.78
2022-08-28T19:15:30.649Z,5.20
2022-08-28T19:17:58.141Z,5.40
2022-08-28T19:20:26.518Z,6.20
2022-08-28T19:22:53.088Z,7.00
2022-08-28T19:25:28.571Z,5.95
2022-08-28T19:27:59.071Z,6.13
2022-08-28T19:30:27.313Z,4.78
2022-08-28T19:32:53.969Z,5.80
2022-08-28T19:35:24.298Z,4.68
2022-08-28T19:37:52.197Z,5.22
2022-08-28T19:40:20.588Z,5.25
2022-08-28T19:42:49.875Z,5.03
2022-08-28T19:45:17.819Z,5.00
2022-08-28T19:47:44.894Z,6.05
2022-08-28T19:50:13.997Z,4.60
2022-08-28T19:52:43.094Z,4.43
2022-08-28T19:55:14.318Z,4.97
2022-08-28T19:57:40.891Z,4.88
2022-08-28T20:00:08.313Z,5.15
2022-08-28T20:02:34.971Z,4.63
2022-08-28T20:05:01.648Z,5.25
2022-08-28T20:07:28.216Z,4.82
2022-08-28T20:09:54.808Z,4.47
2022-08-28T20:12:21.407Z,5.07
2022-08-28T20:14:48.040Z,4.43
2022-08-28T20:17:14.591Z,4.47
2022-08-28T20:19:41.413Z,4.80
2022-08-28T20:22:08.569Z,4.50
2022-08-28T20:24:35.389Z,5.68
2022-08-28T20:27:02.180Z,6.03
2022-08-28T20:29:29.265Z,4.25
2022-08-28T20:31:55.903Z,4.57
2022-08-28T20:34:23.262Z,5.32
2022-08-28T20:36:50.734Z,5.03
2022-08-28T20:39:18.080Z,5.03
2022-08-28T20:41:46.035Z,5.75
2022-08-28T20:44:15.490Z,5.50
2022-08-28T20:46:42.488Z,5.45
2022-08-28T20:49:10.697Z,5.45
2022-08-28T20:51:55.831Z,4.83
2022-08-28T20:54:26.440Z,4.93
2022-08-28T20:56:54.228Z,4.53
2022-08-28T20:59:21.640Z,5.07
2022-08-28T21:01:51.654Z,5.25
2022-08-28T21:04:18.733Z,5.28
2022-08-28T21:06:46.725Z,5.65
2022-08-28T21:09:17.516Z,4.93
2022-08-28T21:11:44.697Z,5.60
2022-08-28T21:14:11.441Z,5.68
2022-08-28T21:16:40.175Z,4.80
2022-08-28T21:19:15.800Z,5.20
2022-08-28T21:21:44.087Z,5.40
2022-08-28T21:24:12.640Z,4.75
2022-08-28T21:26:47.430Z,4.72
2022-08-28T21:29:15.131Z,5.35
2022-08-28T21:31:45.532Z,5.97
2022-08-28T21:34:12.525Z,5.88
2022-08-28T21:36:46.894Z,5.68
2022-08-28T21:39:17.097Z,6.68
2022-08-28T21:41:43.679Z,6.13
2022-08-28T21:44:10.237Z,5.70
2022-08-28T21:46:36.802Z,5.47
2022-08-28T21:49:04.033Z,5.22
2022-08-28T21:51:30.580Z,5.82
2022-08-28T21:53:57.269Z,6.63
2022-08-28T21:56:26.781Z,5.80
2022-08-28T21:58:55.630Z,5.60
2022-08-28T22:01:24.571Z,5.25
2022-08-28T22:06:21.300Z,5.78
2022-08-28T22:08:48.690Z,7.72
2022-08-28T22:11:15.786Z,5.75
2022-08-28T22:13:48.233Z,5.95
2022-08-28T22:16:15.943Z,6.10
2022-08-28T22:18:42.787Z,6.20
2022-08-28T22:21:36.834Z,8.45
2022-08-28T22:24:04.527Z,8.50
2022-08-28T22:26:31.318Z,7.97
2022-08-28T22:28:58.359Z,8.75
2022-08-28T22:31:25.077Z,8.40
2022-08-28T22:33:52.549Z,8.95
2022-08-28T22:36:20.263Z,9.20
2022-08-28T22:38:53.052Z,8.63
2022-08-28T22:41:20.348Z,7.93
2022-08-28T22:43:51.161Z,7.07
2022-08-28T22:46:20.689Z,8.20
2022-08-28T22:48:48.065Z,9.13
2022-08-28T22:51:18.581Z,7.85
2022-08-28T22:53:45.857Z,7.32
2022-08-28T22:56:13.011Z,8.35
2022-08-28T22:58:40.175Z,7.40
2022-08-28T23:01:15.459Z,7.10
2022-08-28T23:03:42.319Z,6.35
2022-08-28T23:06:09.351Z,6.50
2022-08-28T23:08:35.945Z,6.43
2022-08-28T23:11:02.931Z,6.65
2022-08-28T23:13:30.697Z,7.22
2022-08-28T23:15:57.409Z,7.72
2022-08-28T23:18:24.179Z,6.85
2022-08-28T23:20:51.423Z,6.30
2022-08-28T23:23:19.208Z,7.03
2022-08-28T23:25:45.946Z,6.00
2022-08-28T23:28:12.909Z,6.90
2022-08-28T23:30:48.241Z,6.40
2022-08-28T23:33:23.544Z,5.90
2022-08-28T23:35:51.132Z,6.40
2022-08-28T23:38:17.845Z,7.68
2022-08-28T23:40:44.550Z,7.88
2022-08-28T23:43:12.021Z,6.78
2022-08-28T23:45:40.365Z,6.82
2022-08-28T23:48:07.942Z,6.28
2022-08-28T23:50:35.430Z,5.55
2022-08-28T23:53:04.299Z,6.90
2022-08-28T23:55:31.760Z,5.70
2022-08-28T23:58:00.485Z,5.75
